createdAt,value
2017-10-13T00:00:45.319Z,101630.89
2017-10-13T00:03:12.882Z,101632.05
2017-10-13T00:05:40.438Z,101634.63
2017-10-13T00:08:08.009Z,101636.73
2017-10-13T00:10:35.567Z,101637.98
2017-10-13T00:13:03.088Z,101645.81
2017-10-13T00:15:30.636Z,101647.80
2017-10-13T00:17:58.146Z,101648.92
2017-10-13T00:20:25.710Z,101654.16
2017-10-13T00:22:53.260Z,101647.25
2017-10-13T00:25:20.779Z,101660.22
2017-10-13T00:27:48.382Z,101653.31
2017-10-13T00:30:15.902Z,101662.52
2017-10-13T00:32:43.423Z,101662.07
2017-10-13T00:35:10.966Z,101651.95
2017-10-13T00:37:38.492Z,101658.31
2017-10-13T00:40:06.008Z,101648.81
2017-10-13T00:42:33.571Z,101644.09
2017-10-13T00:45:01.095Z,101635.63
2017-10-13T00:47:28.645Z,101633.45
2017-10-13T00:49:56.220Z,101639.50
2017-10-13T00:52:23.762Z,101644.22
2017-10-13T00:54:51.323Z,101647.55
2017-10-13T00:57:18.864Z,101646.38
2017-10-13T00:59:46.448Z,101644.31
2017-10-13T01:02:13.994Z,101632.09
2017-10-13T01:04:41.518Z,101635.22
2017-10-13T01:07:09.086Z,101647.75
2017-10-13T01:09:36.599Z,101650.23
2017-10-13T01:12:04.120Z,101644.50
2017-10-13T01:14:31.676Z,101654.42
2017-10-13T01:16:59.259Z,101649.91
2017-10-13T01:19:26.781Z,101653.28
2017-10-13T01:21:54.368Z,101654.01
2017-10-13T01:24:21.931Z,101657.97
2017-10-13T01:26:49.438Z,101659.88
2017-10-13T01:29:17.014Z,101664.89
2017-10-13T01:31:44.618Z,101665.72
2017-10-13T01:34:12.132Z,101667.80
2017-10-13T01:36:39.700Z,101675.34
2017-10-13T01:39:07.220Z,101678.56
2017-10-13T01:41:34.957Z,101674.58
2017-10-13T01:44:02.520Z,101675.75
2017-10-13T01:46:30.031Z,101678.78
2017-10-13T01:48:57.539Z,101676.06
2017-10-13T01:51:25.085Z,101673.86
2017-10-13T01:53:52.596Z,101681.69
2017-10-13T01:56:20.147Z,101673.66
2017-10-13T01:58:47.766Z,101670.73
2017-10-13T02:01:15.292Z,101674.48
2017-10-13T02:03:42.883Z,101672.41
2017-10-13T02:06:10.442Z,101674.37
2017-10-13T02:08:37.958Z,101674.39
2017-10-13T02:11:05.525Z,101682.11
2017-10-13T02:13:33.044Z,101683.56
2017-10-13T02:16:00.556Z,101692.13
2017-10-13T02:18:28.100Z,101697.56
2017-10-13T02:20:55.616Z,101698.72
2017-10-13T02:23:23.163Z,101703.09
2017-10-13T02:25:50.739Z,101706.13
2017-10-13T02:28:18.260Z,101710.20
2017-10-13T02:30:45.777Z,101710.95
2017-10-13T02:33:13.323Z,101709.91
2017-10-13T02:35:40.845Z,101702.79
2017-10-13T02:38:08.410Z,101701.77
2017-10-13T02:40:35.971Z,101700.49
2017-10-13T02:43:03.491Z,101695.47
2017-10-13T02:45:31.184Z,101703.42
2017-10-13T02:47:58.702Z,101703.33
2017-10-13T02:50:26.223Z,101700.31
2017-10-13T02:52:53.776Z,101704.05
2017-10-13T02:55:21.316Z,101704.47
2017-10-13T02:57:48.835Z,101708.87
2017-10-13T03:00:16.435Z,101711.05
2017-10-13T03:02:43.951Z,101717.64
2017-10-13T03:05:11.563Z,101719.50
2017-10-13T03:07:39.084Z,101722.42
2017-10-13T03:10:06.616Z,101720.88
2017-10-13T03:12:34.181Z,101721.07
2017-10-13T03:15:01.744Z,101721.28
2017-10-13T03:17:29.351Z,101721.59
2017-10-13T03:19:57.018Z,101729.13
2017-10-13T03:22:24.575Z,101723.27
2017-10-13T03:24:52.092Z,101726.73
2017-10-13T03:27:19.657Z,101728.17
2017-10-13T03:29:47.171Z,101729.54
2017-10-13T03:32:14.692Z,101739.03
2017-10-13T03:34:42.252Z,101739.25
2017-10-13T03:37:09.830Z,101737.69
2017-10-13T03:39:37.349Z,101740.27
2017-10-13T03:42:04.920Z,101743.20
2017-10-13T03:44:32.432Z,101738.20
2017-10-13T03:46:59.966Z,101745.37
2017-10-13T03:49:27.523Z,101740.06
2017-10-13T03:51:55.096Z,101752.27
2017-10-13T03:54:22.666Z,101748.28
2017-10-13T03:56:50.202Z,101745.58
2017-10-13T03:59:17.751Z,101748.40
2017-10-13T04:01:45.419Z,101756.54
2017-10-13T04:04:12.937Z,101743.50
2017-10-13T04:06:40.488Z,101756.84
2017-10-13T04:09:08.101Z,101750.15
2017-10-13T04:11:35.834Z,101752.75
2017-10-13T04:14:03.423Z,101753.58
2017-10-13T04:16:30.978Z,101750.56
2017-10-13T04:18:58.533Z,101753.39
2017-10-13T04:21:26.099Z,101755.08
2017-10-13T04:23:53.673Z,101768.01
2017-10-13T04:26:21.191Z,101772.08
2017-10-13T04:28:48.740Z,101764.02
2017-10-13T04:31:16.345Z,101769.36
2017-10-13T04:33:43.896Z,101768.00
2017-10-13T04:36:11.412Z,101766.95
2017-10-13T04:38:38.973Z,101766.64
2017-10-13T04:41:06.492Z,101774.26
2017-10-13T04:43:34.134Z,101773.84
2017-10-13T04:46:01.763Z,101777.06
2017-10-13T04:48:29.279Z,101782.16
2017-10-13T04:50:56.815Z,101793.00
2017-10-13T04:53:24.371Z,101786.83
2017-10-13T04:55:51.963Z,101791.01
2017-10-13T04:58:19.476Z,101787.84
2017-10-13T05:00:46.999Z,101778.47
2017-10-13T05:03:14.559Z,101784.72
2017-10-13T05:05:42.177Z,101782.34
2017-10-13T05:08:09.712Z,101787.13
2017-10-13T05:10:37.238Z,101784.61
2017-10-13T05:13:04.729Z,101784.58
2017-10-13T05:15:32.280Z,101781.67
2017-10-13T05:17:59.842Z,101789.36
2017-10-13T05:20:27.399Z,101795.72
2017-10-13T05:22:54.914Z,101792.86
2017-10-13T05:25:22.529Z,101800.88
2017-10-13T05:27:50.023Z,101802.42
2017-10-13T05:30:17.534Z,101807.02
2017-10-13T05:32:45.064Z,101804.38
2017-10-13T05:35:12.548Z,101808.45
2017-10-13T05:37:40.114Z,101812.63
2017-10-13T05:40:07.665Z,101811.16
2017-10-13T05:42:35.157Z,101811.69
2017-10-13T05:45:02.676Z,101809.50
2017-10-13T05:47:30.195Z,101811.27
2017-10-13T05:49:57.695Z,101814.44
2017-10-13T05:52:25.225Z,101815.19
2017-10-13T05:54:52.720Z,101816.35
2017-10-13T05:57:20.212Z,101828.44
2017-10-13T05:59:47.726Z,101829.05
2017-10-13T06:02:15.214Z,101828.97
2017-10-13T06:04:42.769Z,101830.52
2017-10-13T06:07:10.266Z,101822.42
2017-10-13T06:09:37.757Z,101820.34
2017-10-13T06:12:05.325Z,101824.94
2017-10-13T06:14:32.820Z,101828.41
2017-10-13T06:17:00.303Z,101825.09
2017-10-13T06:19:27.842Z,101835.94
2017-10-13T06:21:55.335Z,101824.30
2017-10-13T06:24:22.821Z,101824.86
2017-10-13T06:26:50.371Z,101825.27
2017-10-13T06:29:17.860Z,101823.34
2017-10-13T06:31:45.407Z,101825.73
2017-10-13T06:34:12.894Z,101822.41
2017-10-13T06:36:40.391Z,101831.30
2017-10-13T06:39:07.922Z,101824.62
2017-10-13T06:41:36.328Z,101831.84
2017-10-13T06:44:03.820Z,101834.35
2017-10-13T06:46:31.379Z,101836.03
2017-10-13T06:48:58.941Z,101827.68
2017-10-13T06:51:26.478Z,101835.85
2017-10-13T06:53:53.973Z,101833.87
2017-10-13T06:56:21.509Z,101833.25
2017-10-13T06:58:49.001Z,101833.46
2017-10-13T07:01:16.483Z,101834.61
2017-10-13T07:03:44.020Z,101831.58
2017-10-13T07:06:11.526Z,101849.11
2017-10-13T07:08:39.016Z,101846.31
2017-10-13T07:11:06.569Z,101853.19
2017-10-13T07:13:34.058Z,101847.04
2017-10-13T07:16:01.560Z,101851.02
2017-10-13T07:18:29.119Z,101856.44
2017-10-13T07:20:56.616Z,101852.89
2017-10-13T07:23:24.134Z,101850.90
2017-10-13T07:25:51.671Z,101845.88
2017-10-13T07:28:19.221Z,101842.12
2017-10-13T07:30:46.709Z,101848.85
2017-10-13T07:33:14.240Z,101850.91
2017-10-13T07:35:41.726Z,101857.37
2017-10-13T07:38:09.289Z,101859.44
2017-10-13T07:40:36.849Z,101870.30
2017-10-13T07:43:04.335Z,101866.69
2017-10-13T07:45:31.821Z,101872.13
2017-10-13T07:47:59.372Z,101871.55
2017-10-13T07:50:26.863Z,101870.14
2017-10-13T07:52:54.351Z,101869.01
2017-10-13T07:55:21.868Z,101868.66
2017-10-13T07:57:49.422Z,101863.53
2017-10-13T08:00:17.008Z,101871.38
2017-10-13T08:02:44.593Z,101875.84
2017-10-13T08:05:12.136Z,101870.61
2017-10-13T08:07:39.619Z,101867.72
2017-10-13T08:10:07.144Z,101866.94
2017-10-13T08:12:34.633Z,101879.61
2017-10-13T08:15:02.116Z,101879.27
2017-10-13T08:17:29.655Z,101879.02
2017-10-13T08:19:57.145Z,101879.48
2017-10-13T08:22:24.640Z,101875.73
2017-10-13T08:24:52.198Z,101877.05
2017-10-13T08:27:19.699Z,101878.94
2017-10-13T08:29:47.217Z,101878.65
2017-10-13T08:32:14.753Z,101874.27
2017-10-13T08:34:42.248Z,101878.88
2017-10-13T08:37:09.730Z,101885.05
2017-10-13T08:39:37.352Z,101883.78
2017-10-13T08:42:04.909Z,101885.66
2017-10-13T08:44:32.396Z,101883.72
2017-10-13T08:47:00.026Z,101885.41
2017-10-13T08:49:27.691Z,101889.73
2017-10-13T08:51:55.256Z,101892.19
2017-10-13T08:54:22.751Z,101887.34
2017-10-13T08:56:50.233Z,101883.59
2017-10-13T08:59:17.783Z,101885.60
2017-10-13T09:01:45.271Z,101890.44
2017-10-13T09:04:12.767Z,101887.64
2017-10-13T09:06:40.309Z,101885.98
2017-10-13T09:09:07.795Z,101883.69
2017-10-13T09:11:36.036Z,101887.63
2017-10-13T09:14:03.580Z,101883.27
2017-10-13T09:16:31.073Z,101887.92
2017-10-13T09:18:58.562Z,101892.63
2017-10-13T09:21:26.093Z,101889.06
2017-10-13T09:23:53.583Z,101888.52
2017-10-13T09:26:21.062Z,101882.03
2017-10-13T09:28:48.580Z,101871.33
2017-10-13T09:31:16.199Z,101867.28
2017-10-13T09:33:43.748Z,101870.11
2017-10-13T09:36:11.235Z,101873.58
2017-10-13T09:38:38.740Z,101880.28
2017-10-13T09:41:06.323Z,101879.11
2017-10-13T09:43:33.807Z,101881.98
2017-10-13T09:46:01.296Z,101886.07
2017-10-13T09:48:28.819Z,101888.75
2017-10-13T09:50:56.382Z,101889.92
2017-10-13T09:53:23.860Z,101889.56
2017-10-13T09:55:51.348Z,101892.49
2017-10-13T09:58:18.904Z,101890.13
2017-10-13T10:00:46.394Z,101891.48
2017-10-13T10:03:13.876Z,101884.08
2017-10-13T10:05:41.417Z,101878.59
2017-10-13T10:08:08.919Z,101881.34
2017-10-13T10:10:36.404Z,101883.89
2017-10-13T10:13:03.943Z,101884.16
2017-10-13T10:15:31.421Z,101885.58
2017-10-13T10:17:59.013Z,101887.23
2017-10-13T10:20:26.547Z,101883.46
2017-10-13T10:22:54.044Z,101874.93
2017-10-13T10:25:21.531Z,101875.98
2017-10-13T10:27:49.145Z,101876.72
2017-10-13T10:30:16.635Z,101874.16
2017-10-13T10:32:44.187Z,101881.16
2017-10-13T10:35:11.684Z,101876.45
2017-10-13T10:37:39.171Z,101882.52
2017-10-13T10:40:06.729Z,101880.23
2017-10-13T10:42:34.229Z,101888.13
2017-10-13T10:45:01.711Z,101880.65
2017-10-13T10:47:29.272Z,101875.25
2017-10-13T10:49:56.781Z,101878.64
2017-10-13T10:52:24.259Z,101885.23
2017-10-13T10:54:51.787Z,101882.70
2017-10-13T10:57:19.289Z,101887.87
2017-10-13T10:59:46.780Z,101878.34
2017-10-13T11:02:14.309Z,101883.52
2017-10-13T11:04:41.833Z,101885.38
2017-10-13T11:07:09.333Z,101885.86
2017-10-13T11:09:36.859Z,101884.98
2017-10-13T11:12:04.345Z,101872.27
2017-10-13T11:14:31.832Z,101860.31
2017-10-13T11:16:59.367Z,101872.69
2017-10-13T11:19:26.871Z,101876.34
2017-10-13T11:21:54.360Z,101875.88
2017-10-13T11:24:21.903Z,101877.94
2017-10-13T11:26:49.393Z,101866.20
2017-10-13T11:29:16.889Z,101868.48
2017-10-13T11:31:44.408Z,101875.99
2017-10-13T11:34:11.900Z,101878.09
2017-10-13T11:36:39.438Z,101884.47
2017-10-13T11:39:06.951Z,101884.80
2017-10-13T11:41:34.522Z,101886.23
2017-10-13T11:44:02.164Z,101883.41
2017-10-13T11:46:29.648Z,101890.85
2017-10-13T11:48:57.186Z,101884.39
2017-10-13T11:51:24.729Z,101876.12
2017-10-13T11:53:52.224Z,101878.27
2017-10-13T11:56:19.708Z,101880.70
2017-10-13T11:58:47.323Z,101879.55
2017-10-13T12:01:14.809Z,101877.83
2017-10-13T12:03:42.303Z,101879.37
2017-10-13T12:06:09.866Z,101882.04
2017-10-13T12:08:37.371Z,101892.34
2017-10-13T12:11:04.905Z,101888.56
2017-10-13T12:13:32.457Z,101893.84
2017-10-13T12:15:59.940Z,101897.92
2017-10-13T12:18:27.473Z,101887.70
2017-10-13T12:20:54.979Z,101886.73
2017-10-13T12:23:22.475Z,101885.13
2017-10-13T12:25:50.026Z,101878.44
2017-10-13T12:28:17.516Z,101881.78
2017-10-13T12:30:45.009Z,101884.22
2017-10-13T12:33:12.556Z,101883.89
2017-10-13T12:35:40.082Z,101879.12
2017-10-13T12:38:07.577Z,101883.94
2017-10-13T12:40:35.108Z,101884.44
2017-10-13T12:43:02.596Z,101883.48
2017-10-13T12:45:30.127Z,101883.02
2017-10-13T12:47:57.619Z,101885.36
2017-10-13T12:50:25.227Z,101885.27
2017-10-13T12:52:52.729Z,101889.97
2017-10-13T12:55:20.215Z,101889.14
2017-10-13T12:57:47.754Z,101890.11
2017-10-13T13:00:15.238Z,101885.41
2017-10-13T13:02:42.721Z,101892.58
2017-10-13T13:05:10.280Z,101890.73
2017-10-13T13:07:37.850Z,101897.39
2017-10-13T13:10:05.387Z,101887.56
2017-10-13T13:12:32.974Z,101880.55
2017-10-13T13:15:00.518Z,101882.98
2017-10-13T13:17:28.017Z,101880.69
2017-10-13T13:19:55.553Z,101879.20
2017-10-13T13:22:23.048Z,101879.22
2017-10-13T13:24:50.532Z,101883.39
2017-10-13T13:27:18.051Z,101886.73
2017-10-13T13:29:45.579Z,101878.72
2017-10-13T13:32:13.124Z,101882.41
2017-10-13T13:34:40.622Z,101873.01
2017-10-13T13:37:08.235Z,101880.34
2017-10-13T13:39:35.720Z,101887.63
2017-10-13T13:42:03.219Z,101883.39
2017-10-13T13:44:30.750Z,101884.91
2017-10-13T13:46:58.238Z,101886.98
2017-10-13T13:49:25.775Z,101885.64
2017-10-13T13:51:53.263Z,101889.03
2017-10-13T13:54:20.821Z,101890.45
2017-10-13T13:56:48.399Z,101877.34
2017-10-13T13:59:15.970Z,101885.88
2017-10-13T14:01:43.494Z,101878.61
2017-10-13T14:04:11.092Z,101876.92
2017-10-13T14:06:38.587Z,101887.30
2017-10-13T14:09:06.097Z,101889.41
2017-10-13T14:11:33.636Z,101892.48
2017-10-13T14:14:01.118Z,101896.08
2017-10-13T14:16:28.605Z,101897.52
2017-10-13T14:18:56.149Z,101889.59
2017-10-13T14:21:23.652Z,101895.66
2017-10-13T14:23:51.147Z,101904.63
2017-10-13T14:26:18.679Z,101897.33
2017-10-13T14:28:46.180Z,101891.93
2017-10-13T14:31:13.667Z,101893.98
2017-10-13T14:33:41.193Z,101887.14
2017-10-13T14:36:08.702Z,101876.73
2017-10-13T14:38:36.193Z,101872.19
2017-10-13T14:41:03.733Z,101873.80
2017-10-13T14:43:31.235Z,101883.16
2017-10-13T14:45:58.780Z,101876.07
2017-10-13T14:48:26.340Z,101887.13
2017-10-13T14:50:53.876Z,101892.20
2017-10-13T14:53:21.369Z,101888.41
2017-10-13T14:55:48.852Z,101902.03
2017-10-13T14:58:16.412Z,101905.36
2017-10-13T15:00:43.924Z,101889.89
2017-10-13T15:03:11.420Z,101897.11
2017-10-13T15:05:38.945Z,101891.80
2017-10-13T15:08:06.445Z,101888.83
2017-10-13T15:10:33.972Z,101882.87
2017-10-13T15:13:01.503Z,101881.70
2017-10-13T15:15:29.059Z,101885.25
2017-10-13T15:17:56.551Z,101895.80
2017-10-13T15:20:24.108Z,101892.58
2017-10-13T15:22:51.658Z,101888.95
2017-10-13T15:25:24.807Z,101895.42
2017-10-13T15:27:58.094Z,101889.77
2017-10-13T15:30:31.273Z,101889.72
2017-10-13T15:33:04.460Z,101897.58
2017-10-13T15:35:37.694Z,101897.34
2017-10-13T15:38:11.711Z,101896.77
2017-10-13T15:40:44.805Z,101907.55
2017-10-13T15:43:18.092Z,101905.02
2017-10-13T15:45:51.195Z,101904.52
2017-10-13T15:48:24.422Z,101898.86
2017-10-13T15:50:57.601Z,101905.16
2017-10-13T15:53:25.135Z,101906.45
2017-10-13T15:55:52.695Z,101908.74
2017-10-13T15:58:20.194Z,101904.92
2017-10-13T16:00:47.820Z,101904.26
2017-10-13T16:03:15.352Z,101909.30
2017-10-13T16:05:42.944Z,101904.31
2017-10-13T16:08:10.432Z,101906.85
2017-10-13T16:10:38.128Z,101908.79
2017-10-13T16:13:05.635Z,101901.35
2017-10-13T16:15:33.177Z,101905.73
2017-10-13T16:18:00.672Z,101901.81
2017-10-13T16:20:28.172Z,101894.50
2017-10-13T16:25:29.555Z,101898.60
2017-10-13T16:27:57.218Z,101896.72
2017-10-13T16:30:24.707Z,101898.20
2017-10-13T16:32:52.196Z,101906.16
2017-10-13T16:35:19.889Z,101906.90
2017-10-13T16:37:47.388Z,101908.05
2017-10-13T16:40:14.873Z,101905.10
2017-10-13T16:42:42.412Z,101906.25
2017-10-13T16:45:09.907Z,101903.05
2017-10-13T16:47:37.395Z,101909.48
2017-10-13T16:50:04.943Z,101910.27
2017-10-13T16:52:32.520Z,101916.17
2017-10-13T16:55:00.063Z,101919.57
2017-10-13T16:57:27.600Z,101914.91
2017-10-13T16:59:55.083Z,101917.66
2017-10-13T17:02:22.578Z,101922.33
2017-10-13T17:04:50.129Z,101935.06
2017-10-13T17:07:17.656Z,101931.11
2017-10-13T17:09:45.147Z,101930.61
2017-10-13T17:12:12.687Z,101932.39
2017-10-13T17:14:40.349Z,101929.17
2017-10-13T17:17:07.851Z,101928.84
2017-10-13T17:19:35.437Z,101919.55
2017-10-13T17:22:02.925Z,101927.30
2017-10-13T17:24:30.416Z,101932.00
2017-10-13T17:26:57.949Z,101925.77
2017-10-13T17:29:25.443Z,101930.61
2017-10-13T17:31:52.937Z,101929.20
2017-10-13T17:34:20.481Z,101928.09
2017-10-13T17:36:47.967Z,101929.86
2017-10-13T17:39:15.470Z,101930.94
2017-10-13T17:41:43.079Z,101936.72
2017-10-13T17:44:10.653Z,101933.08
2017-10-13T17:46:38.152Z,101942.53
2017-10-13T17:49:05.704Z,101940.70
2017-10-13T17:51:33.215Z,101940.23
2017-10-13T17:54:00.733Z,101943.28
2017-10-13T17:56:28.278Z,101938.41
2017-10-13T17:58:55.792Z,101937.16
2017-10-13T18:01:23.296Z,101942.61
2017-10-13T18:03:50.906Z,101938.64
2017-10-13T18:06:18.484Z,101941.24
2017-10-13T18:08:46.165Z,101938.45
2017-10-13T18:11:13.652Z,101941.94
2017-10-13T18:13:41.244Z,101937.16
2017-10-13T18:16:08.780Z,101931.19
2017-10-13T18:18:36.316Z,101932.87
2017-10-13T18:21:03.832Z,101930.47
2017-10-13T18:23:31.323Z,101924.82
2017-10-13T18:25:58.864Z,101928.08
2017-10-13T18:28:26.362Z,101928.40
2017-10-13T18:30:53.910Z,101932.89
2017-10-13T18:33:21.452Z,101929.67
2017-10-13T18:35:48.977Z,101924.55
2017-10-13T18:38:16.536Z,101929.03
2017-10-13T18:40:44.095Z,101934.81
2017-10-13T18:43:11.657Z,101935.33
2017-10-13T18:45:39.208Z,101933.88
2017-10-13T18:48:06.771Z,101929.09
2017-10-13T18:50:34.268Z,101938.97
2017-10-13T18:53:01.788Z,101938.97
2017-10-13T18:55:29.352Z,101932.80
2017-10-13T18:57:56.849Z,101933.34
2017-10-13T19:00:24.340Z,101938.80
2017-10-13T19:02:51.938Z,101945.17
2017-10-13T19:05:19.448Z,101946.54
2017-10-13T19:07:46.968Z,101956.26
2017-10-13T19:10:14.505Z,101954.07
2017-10-13T19:12:42.007Z,101959.84
2017-10-13T19:15:09.501Z,101962.02
2017-10-13T19:17:37.074Z,101958.36
2017-10-13T19:20:04.600Z,101961.91
2017-10-13T19:22:32.096Z,101961.52
2017-10-13T19:24:59.594Z,101962.84
2017-10-13T19:27:27.144Z,101961.08
2017-10-13T19:29:54.644Z,101972.05
2017-10-13T19:32:22.139Z,101967.04
2017-10-13T19:34:49.679Z,101968.61
2017-10-13T19:37:17.174Z,101979.06
2017-10-13T19:39:44.696Z,101977.09
2017-10-13T19:42:12.245Z,101976.14
2017-10-13T19:44:39.748Z,101975.33
2017-10-13T19:47:07.237Z,101975.33
2017-10-13T19:49:34.935Z,101982.23
2017-10-13T19:52:02.427Z,101979.49
2017-10-13T19:54:29.925Z,101970.52
2017-10-13T19:56:57.453Z,101978.56
2017-10-13T19:59:24.939Z,101976.14
2017-10-13T20:01:52.472Z,101982.73
2017-10-13T20:04:19.968Z,101983.91
2017-10-13T20:06:47.543Z,101980.14
2017-10-13T20:09:15.103Z,101981.38
2017-10-13T20:11:42.680Z,101980.53
2017-10-13T20:14:10.176Z,101980.75
2017-10-13T20:16:37.668Z,101978.86
2017-10-13T20:19:05.203Z,101976.56
2017-10-13T20:21:32.705Z,101973.22
2017-10-13T20:24:00.271Z,101971.77
2017-10-13T20:26:27.831Z,101975.20
2017-10-13T20:28:55.371Z,101971.86
2017-10-13T20:31:22.865Z,101975.42
2017-10-13T20:33:50.386Z,101970.31
2017-10-13T20:36:17.925Z,101969.88
2017-10-13T20:38:46.343Z,101971.46
2017-10-13T20:41:13.876Z,101970.70
2017-10-13T20:43:41.395Z,101976.24
2017-10-13T20:46:08.884Z,101973.73
2017-10-13T20:48:36.426Z,101967.88
2017-10-13T20:51:04.016Z,101964.21
2017-10-13T20:53:31.517Z,101976.33
2017-10-13T20:55:59.141Z,101975.87
2017-10-13T20:58:26.644Z,101970.75
2017-10-13T21:00:54.144Z,101972.64
2017-10-13T21:03:21.716Z,101974.39
2017-10-13T21:05:49.226Z,101975.34
2017-10-13T21:08:16.722Z,101978.89
2017-10-13T21:10:44.269Z,101967.20
2017-10-13T21:13:11.775Z,101965.81
2017-10-13T21:15:39.279Z,101966.30
2017-10-13T21:18:06.840Z,101966.48
2017-10-13T21:20:34.347Z,101969.52
2017-10-13T21:23:01.836Z,101965.20
2017-10-13T21:25:29.359Z,101964.30
2017-10-13T21:27:56.856Z,101960.98
2017-10-13T21:30:24.378Z,101955.97
2017-10-13T21:32:51.872Z,101965.11
2017-10-13T21:35:19.473Z,101968.77
2017-10-13T21:37:46.974Z,101962.81
2017-10-13T21:40:14.520Z,101966.91
2017-10-13T21:42:42.030Z,101972.02
2017-10-13T21:45:09.544Z,101970.76
2017-10-13T21:47:37.074Z,101973.91
2017-10-13T21:50:04.660Z,101960.20
2017-10-13T21:52:32.161Z,101965.84
2017-10-13T21:54:59.780Z,101966.78
2017-10-13T21:57:27.312Z,101969.36
2017-10-13T21:59:54.853Z,101960.69
2017-10-13T22:02:22.435Z,101965.31
2017-10-13T22:04:55.700Z,101961.05
2017-10-13T22:07:23.195Z,101968.18
2017-10-13T22:09:50.736Z,101961.89
2017-10-13T22:12:18.233Z,101965.37
2017-10-13T22:14:45.736Z,101963.08
2017-10-13T22:17:13.325Z,101961.52
2017-10-13T22:19:40.812Z,101957.11
2017-10-13T22:22:08.307Z,101953.45
2017-10-13T22:24:35.832Z,101962.42
2017-10-13T22:27:03.346Z,101953.45
2017-10-13T22:29:30.871Z,101950.84
2017-10-13T22:31:58.471Z,101955.56
2017-10-13T22:34:26.009Z,101954.30
2017-10-13T22:36:53.509Z,101948.31
2017-10-13T22:39:21.008Z,101948.21
2017-10-13T22:41:48.563Z,101951.53
2017-10-13T22:44:16.055Z,101958.28
2017-10-13T22:46:43.614Z,101964.56
2017-10-13T22:49:11.156Z,101962.86
2017-10-13T22:51:38.693Z,101967.56
2017-10-13T22:54:06.232Z,101971.44
2017-10-13T22:56:33.738Z,101975.12
2017-10-13T22:59:01.229Z,101979.95
2017-10-13T23:01:28.773Z,101977.01
2017-10-13T23:03:56.270Z,101973.98
2017-10-13T23:06:23.776Z,101977.45
2017-10-13T23:08:51.312Z,101973.98
2017-10-13T23:11:18.898Z,101977.45
2017-10-13T23:13:46.404Z,101984.02
2017-10-13T23:16:13.939Z,101979.84
2017-10-13T23:18:41.429Z,101979.94
2017-10-13T23:21:09.029Z,101978.48
2017-10-13T23:23:36.589Z,101977.75
2017-10-13T23:26:04.090Z,101979.21
2017-10-13T23:28:31.595Z,101983.58
2017-10-13T23:30:59.168Z,101981.98
2017-10-13T23:33:26.746Z,101981.16
2017-10-13T23:35:54.244Z,101988.69
2017-10-13T23:38:21.780Z,101986.19
2017-10-13T23:40:49.278Z,101984.72
2017-10-13T23:43:16.780Z,101982.00
2017-10-13T23:45:44.318Z,101983.50
2017-10-13T23:48:11.878Z,101986.14
2017-10-13T23:50:39.378Z,101981.22
2017-10-13T23:53:06.996Z,101985.32
2017-10-13T23:55:34.494Z,101987.28
2017-10-13T23:58:02.047Z,101987.05
